createdAt,value
2023-02-21T00:00:07.185Z,7.26
2023-02-21T00:02:33.453Z,7.24
2023-02-21T00:04:59.768Z,7.24
2023-02-21T00:07:26.072Z,7.19
2023-02-21T00:09:52.432Z,7.15
2023-02-21T00:12:18.708Z,7.11
2023-02-21T00:14:44.973Z,7.14
2023-02-21T00:17:11.248Z,7.08
2023-02-21T00:19:37.498Z,7.20
2023-02-21T00:22:03.760Z,7.31
2023-02-21T00:24:30.018Z,7.37
2023-02-21T00:26:56.292Z,7.35
2023-02-21T00:29:22.539Z,7.38
2023-02-21T00:31:49.043Z,7.43
2023-02-21T00:34:15.295Z,7.40
2023-02-21T00:36:41.538Z,7.37
2023-02-21T00:39:07.797Z,7.27
2023-02-21T00:41:34.052Z,7.19
2023-02-21T00:44:00.303Z,7.14
2023-02-21T00:46:26.557Z,7.12
2023-02-21T00:48:52.817Z,7.12
2023-02-21T00:51:19.093Z,7.15
2023-02-21T00:53:45.354Z,7.22
2023-02-21T00:56:11.622Z,7.16
2023-02-21T00:58:37.893Z,7.14
2023-02-21T01:01:04.209Z,7.10
2023-02-21T01:03:30.533Z,7.02
2023-02-21T01:05:56.799Z,7.05
2023-02-21T01:08:23.074Z,7.09
2023-02-21T01:10:49.351Z,7.16
2023-02-21T01:13:15.604Z,7.17
2023-02-21T01:15:41.888Z,7.17
2023-02-21T01:18:08.169Z,7.26
2023-02-21T01:20:34.453Z,7.22
2023-02-21T01:23:00.721Z,7.14
2023-02-21T01:25:27.093Z,7.10
2023-02-21T01:27:53.342Z,7.04
2023-02-21T01:30:19.631Z,7.01
2023-02-21T01:32:45.911Z,7.02
2023-02-21T01:35:12.192Z,7.04
2023-02-21T01:37:38.466Z,7.15
2023-02-21T01:40:04.734Z,7.23
2023-02-21T01:42:30.999Z,7.26
2023-02-21T01:44:57.246Z,7.31
2023-02-21T01:47:23.519Z,7.35
2023-02-21T01:49:49.783Z,7.40
2023-02-21T01:52:16.046Z,7.44
2023-02-21T01:54:42.295Z,7.39
2023-02-21T01:57:08.571Z,7.36
2023-02-21T01:59:34.946Z,7.29
2023-02-21T02:02:01.197Z,7.31
2023-02-21T02:04:27.498Z,7.26
2023-02-21T02:06:53.789Z,7.21
2023-02-21T02:09:20.049Z,7.24
2023-02-21T02:11:46.298Z,7.29
2023-02-21T02:14:12.557Z,7.16
2023-02-21T02:16:38.811Z,7.07
2023-02-21T02:19:05.083Z,7.06
2023-02-21T02:21:31.369Z,7.05
2023-02-21T02:23:57.640Z,7.02
2023-02-21T02:26:23.897Z,6.95
2023-02-21T02:28:50.152Z,6.91
2023-02-21T02:31:16.926Z,6.81
2023-02-21T02:33:43.386Z,6.70
2023-02-21T02:36:09.637Z,6.68
2023-02-21T02:38:35.913Z,6.67
2023-02-21T02:41:02.177Z,6.60
2023-02-21T02:43:28.454Z,6.61
2023-02-21T02:45:54.724Z,6.56
2023-02-21T02:48:20.997Z,6.54
2023-02-21T02:50:47.272Z,6.52
2023-02-21T02:53:13.535Z,6.56
2023-02-21T02:55:39.801Z,6.58
2023-02-21T02:58:06.079Z,6.58
2023-02-21T03:00:32.333Z,6.58
2023-02-21T03:02:58.599Z,6.61
2023-02-21T03:05:24.954Z,6.60
2023-02-21T03:07:51.217Z,6.63
2023-02-21T03:10:17.474Z,6.57
2023-02-21T03:12:43.731Z,6.49
2023-02-21T03:15:09.994Z,6.44
2023-02-21T03:17:36.262Z,6.44
2023-02-21T03:20:02.515Z,6.42
2023-02-21T03:22:28.768Z,6.45
2023-02-21T03:24:55.031Z,6.46
2023-02-21T03:27:21.290Z,6.40
2023-02-21T03:29:47.535Z,6.42
2023-02-21T03:32:13.923Z,6.38
2023-02-21T03:34:40.221Z,6.37
2023-02-21T03:37:06.489Z,6.35
2023-02-21T03:39:32.769Z,6.38
2023-02-21T03:41:59.049Z,6.38
2023-02-21T03:44:25.316Z,6.41
2023-02-21T03:46:51.630Z,6.45
2023-02-21T03:49:17.917Z,6.50
2023-02-21T03:51:44.284Z,6.45
2023-02-21T03:54:10.549Z,6.44
2023-02-21T03:56:41.957Z,6.37
2023-02-21T03:59:08.762Z,6.25
2023-02-21T04:01:35.060Z,6.22
2023-02-21T04:04:01.308Z,6.20
2023-02-21T04:06:27.553Z,6.20
2023-02-21T04:08:53.857Z,6.24
2023-02-21T04:11:20.135Z,6.17
2023-02-21T04:13:46.384Z,6.18
2023-02-21T04:16:12.657Z,6.17
2023-02-21T04:18:38.924Z,6.18
2023-02-21T04:21:05.185Z,6.13
2023-02-21T04:23:31.520Z,6.18
2023-02-21T04:25:57.790Z,6.12
2023-02-21T04:28:24.071Z,6.10
2023-02-21T04:30:50.346Z,6.05
2023-02-21T04:33:16.615Z,6.02
2023-02-21T04:35:42.863Z,6.02
2023-02-21T04:38:09.133Z,6.01
2023-02-21T04:40:35.390Z,6.00
2023-02-21T04:43:01.660Z,5.96
2023-02-21T04:45:27.965Z,5.92
2023-02-21T04:47:54.228Z,5.96
2023-02-21T04:50:20.549Z,5.97
2023-02-21T04:52:46.798Z,5.95
2023-02-21T04:55:13.042Z,5.91
2023-02-21T04:57:39.321Z,5.96
2023-02-21T05:00:05.610Z,5.95
2023-02-21T05:02:31.859Z,5.92
2023-02-21T05:04:58.125Z,5.98
2023-02-21T05:07:24.431Z,5.96
2023-02-21T05:09:50.691Z,5.91
2023-02-21T05:12:16.931Z,5.87
2023-02-21T05:14:43.183Z,5.87
2023-02-21T05:17:09.465Z,5.99
2023-02-21T05:19:35.736Z,6.05
2023-02-21T05:22:01.982Z,6.04
2023-02-21T05:24:28.238Z,5.97
2023-02-21T05:26:54.490Z,5.97
2023-02-21T05:29:20.774Z,5.99
2023-02-21T05:31:47.141Z,6.00
2023-02-21T05:34:13.459Z,5.95
2023-02-21T05:36:41.106Z,5.96
2023-02-21T05:39:07.548Z,5.94
2023-02-21T05:41:33.815Z,5.83
2023-02-21T05:44:00.117Z,5.84
2023-02-21T05:46:26.377Z,5.79
2023-02-21T05:48:52.622Z,5.82
2023-02-21T05:51:18.904Z,5.76
2023-02-21T05:53:45.181Z,5.78
2023-02-21T05:56:11.470Z,5.76
2023-02-21T05:58:37.730Z,5.76
2023-02-21T06:01:03.978Z,5.74
2023-02-21T06:03:30.407Z,5.72
2023-02-21T06:05:56.717Z,5.67
2023-02-21T06:08:23.009Z,5.64
2023-02-21T06:10:49.285Z,5.67
2023-02-21T06:13:15.578Z,5.75
2023-02-21T06:15:41.956Z,5.77
2023-02-21T06:18:08.237Z,5.85
2023-02-21T06:20:34.509Z,5.82
2023-02-21T06:23:00.763Z,5.84
2023-02-21T06:25:27.035Z,5.89
2023-02-21T06:27:53.314Z,5.80
2023-02-21T06:30:21.627Z,5.79
2023-02-21T06:32:49.089Z,5.78
2023-02-21T06:35:15.376Z,5.80
2023-02-21T06:37:41.645Z,5.76
2023-02-21T06:40:07.886Z,5.77
2023-02-21T06:42:34.166Z,5.96
2023-02-21T06:45:00.439Z,6.06
2023-02-21T06:47:26.708Z,6.07
2023-02-21T06:49:52.981Z,6.03
2023-02-21T06:52:19.249Z,5.92
2023-02-21T06:54:45.504Z,5.85
2023-02-21T06:57:11.773Z,5.90
2023-02-21T06:59:38.035Z,6.07
2023-02-21T07:02:04.315Z,6.30
2023-02-21T07:04:30.610Z,6.36
2023-02-21T07:06:56.886Z,6.40
2023-02-21T07:09:23.163Z,6.61
2023-02-21T07:11:49.430Z,6.68
2023-02-21T07:14:15.680Z,6.85
2023-02-21T07:16:41.950Z,6.99
2023-02-21T07:19:08.219Z,7.10
2023-02-21T07:21:34.496Z,7.34
2023-02-21T07:24:00.763Z,7.43
2023-02-21T07:26:27.010Z,7.54
2023-02-21T07:28:53.359Z,7.67
2023-02-21T07:31:20.234Z,7.72
2023-02-21T07:33:46.728Z,7.74
2023-02-21T07:36:12.983Z,7.80
2023-02-21T07:38:39.246Z,7.91
2023-02-21T07:41:05.547Z,7.96
2023-02-21T07:43:31.823Z,8.01
2023-02-21T07:45:58.090Z,7.90
2023-02-21T07:48:24.446Z,7.89
2023-02-21T07:50:50.722Z,7.84
2023-02-21T07:53:16.999Z,7.84
2023-02-21T07:55:43.293Z,7.83
2023-02-21T07:58:09.558Z,7.87
2023-02-21T08:00:36.838Z,7.86
2023-02-21T08:03:04.346Z,7.89
2023-02-21T08:05:30.622Z,7.91
2023-02-21T08:07:56.899Z,7.92
2023-02-21T08:10:23.154Z,8.00
2023-02-21T08:12:49.405Z,7.98
2023-02-21T08:15:15.687Z,8.00
2023-02-21T08:17:41.940Z,8.00
2023-02-21T08:20:08.256Z,8.08
2023-02-21T08:22:34.513Z,8.09
2023-02-21T08:25:00.771Z,8.13
2023-02-21T08:27:27.027Z,8.15
2023-02-21T08:29:53.273Z,8.16
2023-02-21T08:32:19.572Z,8.19
2023-02-21T08:34:45.822Z,8.32
2023-02-21T08:37:12.088Z,8.37
2023-02-21T08:39:38.376Z,8.49
2023-02-21T08:42:04.625Z,8.49
2023-02-21T08:44:30.887Z,8.51
2023-02-21T08:46:57.219Z,8.59
2023-02-21T08:49:23.537Z,8.68
2023-02-21T08:51:49.815Z,8.69
2023-02-21T08:54:16.061Z,8.70
2023-02-21T08:56:42.334Z,8.81
2023-02-21T08:59:08.610Z,8.90
2023-02-21T09:01:34.873Z,8.96
2023-02-21T09:04:01.120Z,9.05
2023-02-21T09:06:27.392Z,9.02
2023-02-21T09:08:53.957Z,9.15
2023-02-21T09:11:20.257Z,9.17
2023-02-21T09:13:46.525Z,9.33
2023-02-21T09:16:12.825Z,9.27
2023-02-21T09:18:39.128Z,9.41
2023-02-21T09:21:05.384Z,9.47
2023-02-21T09:23:32.951Z,9.48
2023-02-21T09:25:59.230Z,9.53
2023-02-21T09:28:25.487Z,9.42
2023-02-21T09:30:51.754Z,9.31
2023-02-21T09:33:18.035Z,9.37
2023-02-21T09:35:44.317Z,9.45
2023-02-21T09:38:10.603Z,9.51
2023-02-21T09:40:36.877Z,9.52
2023-02-21T09:43:03.173Z,9.53
2023-02-21T09:45:29.453Z,9.57
2023-02-21T09:47:55.733Z,9.61
2023-02-21T09:50:22.060Z,9.58
2023-02-21T09:52:48.383Z,9.64
2023-02-21T09:55:14.646Z,9.70
2023-02-21T09:57:40.894Z,9.79
2023-02-21T10:00:07.157Z,9.88
2023-02-21T10:02:33.411Z,9.94
2023-02-21T10:04:59.761Z,9.92
2023-02-21T10:07:26.080Z,10.01
2023-02-21T10:09:52.354Z,10.06
2023-02-21T10:12:18.641Z,10.11
2023-02-21T10:14:44.892Z,10.20
2023-02-21T10:17:11.142Z,10.29
2023-02-21T10:19:37.414Z,10.35
2023-02-21T10:22:03.703Z,10.38
2023-02-21T10:24:30.005Z,10.55
2023-02-21T10:26:56.278Z,10.62
2023-02-21T10:29:22.551Z,10.64
2023-02-21T10:31:49.102Z,10.71
2023-02-21T10:34:15.367Z,10.74
2023-02-21T10:36:41.623Z,10.82
2023-02-21T10:39:07.895Z,10.90
2023-02-21T10:41:34.146Z,10.95
2023-02-21T10:44:00.406Z,11.04
2023-02-21T10:46:26.730Z,11.10
2023-02-21T10:48:53.073Z,11.29
2023-02-21T10:51:19.370Z,11.29
2023-02-21T10:53:45.642Z,11.32
2023-02-21T10:56:11.896Z,11.34
2023-02-21T10:58:38.158Z,11.42
2023-02-21T11:01:04.475Z,11.47
2023-02-21T11:03:30.781Z,11.51
2023-02-21T11:05:57.082Z,11.63
2023-02-21T11:08:23.368Z,11.75
2023-02-21T11:10:49.646Z,11.88
2023-02-21T11:13:16.074Z,12.09
2023-02-21T11:15:42.352Z,12.27
2023-02-21T11:18:08.609Z,12.30
2023-02-21T11:20:34.895Z,12.51
2023-02-21T11:23:01.157Z,12.51
2023-02-21T11:25:27.420Z,12.52
2023-02-21T11:27:53.703Z,12.41
2023-02-21T11:30:20.019Z,12.50
2023-02-21T11:32:46.348Z,12.54
2023-02-21T11:35:12.610Z,12.57
2023-02-21T11:37:38.866Z,12.77
2023-02-21T11:40:05.134Z,12.73
2023-02-21T11:42:31.417Z,12.75
2023-02-21T11:44:57.685Z,12.83
2023-02-21T11:47:23.948Z,12.88
2023-02-21T11:49:52.173Z,12.89
2023-02-21T11:52:18.582Z,13.00
2023-02-21T11:54:44.845Z,13.04
2023-02-21T11:57:11.115Z,13.13
2023-02-21T11:59:37.373Z,13.35
2023-02-21T12:02:03.663Z,13.41
2023-02-21T12:04:29.932Z,13.51
2023-02-21T12:06:56.188Z,13.57
2023-02-21T12:09:22.463Z,13.67
2023-02-21T12:11:48.746Z,13.82
2023-02-21T12:14:15.034Z,13.84
2023-02-21T12:16:41.302Z,13.95
2023-02-21T12:19:07.576Z,13.92
2023-02-21T12:21:33.844Z,13.89
2023-02-21T12:24:00.122Z,13.92
2023-02-21T12:26:26.402Z,14.04
2023-02-21T12:28:52.674Z,14.09
2023-02-21T12:31:19.473Z,14.16
2023-02-21T12:33:45.951Z,14.17
2023-02-21T12:36:12.252Z,14.20
2023-02-21T12:38:39.619Z,14.30
2023-02-21T12:41:05.936Z,14.20
2023-02-21T12:43:32.191Z,14.34
2023-02-21T12:45:58.458Z,14.38
2023-02-21T12:48:24.719Z,14.46
2023-02-21T12:50:50.970Z,14.45
2023-02-21T12:53:17.264Z,14.54
2023-02-21T12:55:43.538Z,14.47
2023-02-21T12:58:09.845Z,14.57
2023-02-21T13:00:36.126Z,14.60
2023-02-21T13:03:02.490Z,14.59
2023-02-21T13:05:28.792Z,14.74
2023-02-21T13:07:55.050Z,14.76
2023-02-21T13:10:21.321Z,14.75
2023-02-21T13:12:47.603Z,14.83
2023-02-21T13:15:13.963Z,14.75
2023-02-21T13:17:40.241Z,14.82
2023-02-21T13:20:06.534Z,14.82
2023-02-21T13:22:32.852Z,14.83
2023-02-21T13:24:59.120Z,14.78
2023-02-21T13:27:25.420Z,14.82
2023-02-21T13:29:51.769Z,14.83
2023-02-21T13:32:18.135Z,14.89
2023-02-21T13:34:45.684Z,14.85
2023-02-21T13:37:12.071Z,14.88
2023-02-21T13:39:38.324Z,14.87
2023-02-21T13:42:04.847Z,14.96
2023-02-21T13:44:31.110Z,14.91
2023-02-21T13:46:57.380Z,14.94
2023-02-21T13:49:23.754Z,14.90
2023-02-21T13:51:50.011Z,14.97
2023-02-21T13:54:16.282Z,15.04
2023-02-21T13:56:42.540Z,15.02
2023-02-21T13:59:08.815Z,15.01
2023-02-21T14:01:35.093Z,15.07
2023-02-21T14:04:01.394Z,15.02
2023-02-21T14:06:27.701Z,15.17
2023-02-21T14:08:53.972Z,15.17
2023-02-21T14:11:20.232Z,15.28
2023-02-21T14:13:46.491Z,15.28
2023-02-21T14:16:12.806Z,15.30
2023-02-21T14:18:39.151Z,15.26
2023-02-21T14:21:05.408Z,15.26
2023-02-21T14:23:31.663Z,15.33
2023-02-21T14:25:59.957Z,15.44
2023-02-21T14:28:26.432Z,15.49
2023-02-21T14:30:52.700Z,15.50
2023-02-21T14:33:19.006Z,15.49
2023-02-21T14:35:45.282Z,15.53
2023-02-21T14:38:11.544Z,15.62
2023-02-21T14:40:37.813Z,15.71
2023-02-21T14:43:04.097Z,15.81
2023-02-21T14:45:30.537Z,15.80
2023-02-21T14:47:56.880Z,15.84
2023-02-21T14:50:23.163Z,15.86
2023-02-21T14:52:49.420Z,15.90
2023-02-21T14:55:15.678Z,15.79
2023-02-21T14:57:41.952Z,15.99
2023-02-21T15:00:08.234Z,16.02
2023-02-21T15:02:34.525Z,16.10
2023-02-21T15:05:00.801Z,16.16
2023-02-21T15:07:27.094Z,16.22
2023-02-21T15:09:53.353Z,16.21
2023-02-21T15:12:19.630Z,16.20
2023-02-21T15:14:45.909Z,16.15
2023-02-21T15:17:12.347Z,16.22
2023-02-21T15:19:38.621Z,16.19
2023-02-21T15:22:04.906Z,16.16
2023-02-21T15:24:31.186Z,16.20
2023-02-21T15:26:57.441Z,16.28
2023-02-21T15:29:23.717Z,16.38
2023-02-21T15:31:50.023Z,16.33
2023-02-21T15:34:16.319Z,16.27
2023-02-21T15:36:42.567Z,16.35
2023-02-21T15:39:08.819Z,16.36
2023-02-21T15:41:35.105Z,16.54
2023-02-21T15:44:01.359Z,16.54
2023-02-21T15:46:27.661Z,16.49
2023-02-21T15:48:53.973Z,16.52
2023-02-21T15:51:20.256Z,16.51
2023-02-21T15:53:46.534Z,16.67
2023-02-21T15:56:12.894Z,16.76
2023-02-21T15:58:39.164Z,16.81
2023-02-21T16:01:05.463Z,16.73
2023-02-21T16:03:31.781Z,16.79
2023-02-21T16:05:58.081Z,16.79
2023-02-21T16:08:24.357Z,16.74
2023-02-21T16:10:50.631Z,16.75
2023-02-21T16:13:16.890Z,16.68
2023-02-21T16:15:43.210Z,16.65
2023-02-21T16:18:09.526Z,16.70
2023-02-21T16:20:35.802Z,16.70
2023-02-21T16:23:08.162Z,16.64
2023-02-21T16:25:34.734Z,16.52
2023-02-21T16:28:00.999Z,16.48
2023-02-21T16:30:27.309Z,16.35
2023-02-21T16:32:53.635Z,16.24
2023-02-21T16:35:19.901Z,16.03
2023-02-21T16:37:46.180Z,15.77
2023-02-21T16:40:12.451Z,15.78
2023-02-21T16:42:38.736Z,15.76
2023-02-21T16:45:05.021Z,15.58
2023-02-21T16:47:31.289Z,15.53
2023-02-21T16:49:57.553Z,15.48
2023-02-21T16:52:23.826Z,15.37
2023-02-21T16:54:50.077Z,15.28
2023-02-21T16:57:16.376Z,15.03
2023-02-21T16:59:42.649Z,14.93
2023-02-21T17:02:08.916Z,14.65
2023-02-21T17:04:35.177Z,14.40
2023-02-21T17:07:01.465Z,14.27
2023-02-21T17:09:27.764Z,14.23
2023-02-21T17:11:54.022Z,14.09
2023-02-21T17:14:20.302Z,13.94
2023-02-21T17:16:46.588Z,13.82
2023-02-21T17:19:12.862Z,13.77
2023-02-21T17:21:39.135Z,13.57
2023-02-21T17:24:05.405Z,13.47
2023-02-21T17:26:31.762Z,13.40
2023-02-21T17:28:58.030Z,13.51
2023-02-21T17:31:24.340Z,13.54
2023-02-21T17:33:50.632Z,13.48
2023-02-21T17:36:17.031Z,13.38
2023-02-21T17:38:43.314Z,13.19
2023-02-21T17:41:09.594Z,13.05
2023-02-21T17:43:35.931Z,12.93
2023-02-21T17:46:02.250Z,12.63
2023-02-21T17:48:28.543Z,12.64
2023-02-21T17:50:54.819Z,12.62
2023-02-21T17:53:21.083Z,12.71
2023-02-21T17:55:47.336Z,12.55
2023-02-21T17:58:13.582Z,12.44
2023-02-21T18:00:39.840Z,12.30
2023-02-21T18:03:06.111Z,12.19
2023-02-21T18:05:32.394Z,11.99
2023-02-21T18:07:58.670Z,11.79
2023-02-21T18:10:24.942Z,11.73
2023-02-21T18:12:51.643Z,11.70
2023-02-21T18:15:17.950Z,11.69
2023-02-21T18:17:44.222Z,11.58
2023-02-21T18:20:10.493Z,11.66
2023-02-21T18:22:36.754Z,11.67
2023-02-21T18:25:03.006Z,11.61
2023-02-21T18:27:29.278Z,11.56
2023-02-21T18:29:55.551Z,11.58
2023-02-21T18:32:21.874Z,11.49
2023-02-21T18:34:48.170Z,11.41
2023-02-21T18:37:14.433Z,11.39
2023-02-21T18:39:40.722Z,11.40
2023-02-21T18:42:06.981Z,11.41
2023-02-21T18:44:33.289Z,11.32
2023-02-21T18:46:59.612Z,11.34
2023-02-21T18:49:25.938Z,11.28
2023-02-21T18:51:52.196Z,11.26
2023-02-21T18:54:18.489Z,11.04
2023-02-21T18:56:44.774Z,10.92
2023-02-21T18:59:11.038Z,10.95
2023-02-21T19:01:37.317Z,11.01
2023-02-21T19:04:03.691Z,11.09
2023-02-21T19:06:30.053Z,11.06
2023-02-21T19:08:56.338Z,10.98
2023-02-21T19:11:22.613Z,11.04
2023-02-21T19:13:48.885Z,10.99
2023-02-21T19:16:15.214Z,10.94
2023-02-21T19:18:41.491Z,10.89
2023-02-21T19:21:07.766Z,10.84
2023-02-21T19:23:34.014Z,10.71
2023-02-21T19:26:00.286Z,10.65
2023-02-21T19:28:26.546Z,10.72
2023-02-21T19:30:52.978Z,10.79
2023-02-21T19:33:19.389Z,10.78
2023-02-21T19:35:45.639Z,10.74
2023-02-21T19:38:11.911Z,10.56
2023-02-21T19:40:38.276Z,10.52
2023-02-21T19:43:04.546Z,10.51
2023-02-21T19:45:30.857Z,10.52
2023-02-21T19:47:57.169Z,10.46
2023-02-21T19:50:23.445Z,10.38
2023-02-21T19:52:49.701Z,10.25
2023-02-21T19:55:15.962Z,10.17
2023-02-21T19:57:42.247Z,10.10
2023-02-21T20:00:08.501Z,9.96
2023-02-21T20:02:34.769Z,9.91
2023-02-21T20:05:01.042Z,9.88
2023-02-21T20:07:27.320Z,9.85
2023-02-21T20:09:53.582Z,9.87
2023-02-21T20:12:19.868Z,9.81
2023-02-21T20:14:46.124Z,9.82
2023-02-21T20:17:12.416Z,9.79
2023-02-21T20:19:38.701Z,9.81
2023-02-21T20:22:04.981Z,9.76
2023-02-21T20:24:31.257Z,9.74
2023-02-21T20:26:57.522Z,9.76
2023-02-21T20:29:23.784Z,9.69
2023-02-21T20:31:50.187Z,9.64
2023-02-21T20:34:16.521Z,9.62
2023-02-21T20:36:42.794Z,9.60
2023-02-21T20:39:09.046Z,9.56
2023-02-21T20:41:35.313Z,9.56
2023-02-21T20:44:01.573Z,9.48
2023-02-21T20:46:27.875Z,9.48
2023-02-21T20:48:54.174Z,9.48
2023-02-21T20:51:20.434Z,9.53
2023-02-21T20:53:46.689Z,9.54
2023-02-21T20:56:12.943Z,9.54
2023-02-21T20:58:39.201Z,9.55
2023-02-21T21:01:05.473Z,9.46
2023-02-21T21:03:31.775Z,9.50
2023-02-21T21:05:58.049Z,9.50
2023-02-21T21:08:24.319Z,9.49
2023-02-21T21:10:50.585Z,9.43
2023-02-21T21:13:16.843Z,9.44
2023-02-21T21:15:43.108Z,9.39
2023-02-21T21:18:09.385Z,9.29
2023-02-21T21:20:35.635Z,9.27
2023-02-21T21:23:01.892Z,9.17
2023-02-21T21:25:28.134Z,9.14
2023-02-21T21:27:54.398Z,9.11
2023-02-21T21:30:20.663Z,9.06
2023-02-21T21:32:47.061Z,9.12
2023-02-21T21:35:13.339Z,9.18
2023-02-21T21:37:39.606Z,9.24
2023-02-21T21:40:05.880Z,9.30
2023-02-21T21:42:32.166Z,9.35
2023-02-21T21:44:58.446Z,9.37
2023-02-21T21:47:24.741Z,9.43
2023-02-21T21:49:50.994Z,9.49
2023-02-21T21:52:17.250Z,9.52
2023-02-21T21:54:43.498Z,9.50
2023-02-21T21:57:09.771Z,9.51
2023-02-21T21:59:36.038Z,9.52
2023-02-21T22:02:02.302Z,9.54
2023-02-21T22:04:28.578Z,9.61
2023-02-21T22:06:54.823Z,9.65
2023-02-21T22:09:21.068Z,9.68
2023-02-21T22:11:47.353Z,9.72
2023-02-21T22:14:13.641Z,9.71
2023-02-21T22:16:39.889Z,9.69
2023-02-21T22:19:06.261Z,9.67
2023-02-21T22:21:32.533Z,9.66
2023-02-21T22:23:58.811Z,9.63
2023-02-21T22:26:25.076Z,9.62
2023-02-21T22:28:51.321Z,9.57
2023-02-21T22:31:18.080Z,9.54
2023-02-21T22:33:44.475Z,9.45
2023-02-21T22:36:10.754Z,9.35
2023-02-21T22:38:37.012Z,9.33
2023-02-21T22:41:03.270Z,9.22
2023-02-21T22:43:29.529Z,9.16
2023-02-21T22:45:55.778Z,9.09
2023-02-21T22:48:22.053Z,9.10
2023-02-21T22:50:48.292Z,9.09
2023-02-21T22:53:14.571Z,9.10
2023-02-21T22:55:40.837Z,9.17
2023-02-21T22:58:07.104Z,9.16
2023-02-21T23:00:33.368Z,9.20
2023-02-21T23:02:59.654Z,9.17
2023-02-21T23:05:25.913Z,9.18
2023-02-21T23:07:52.179Z,9.20
2023-02-21T23:10:18.446Z,9.12
2023-02-21T23:12:44.712Z,9.05
2023-02-21T23:15:10.959Z,8.99
2023-02-21T23:17:37.212Z,8.95
2023-02-21T23:20:03.466Z,8.86
2023-02-21T23:22:29.713Z,8.87
2023-02-21T23:24:55.953Z,8.80
2023-02-21T23:27:22.218Z,8.76
2023-02-21T23:29:48.469Z,8.72
2023-02-21T23:32:14.769Z,8.77
2023-02-21T23:34:41.291Z,8.78
2023-02-21T23:37:07.634Z,8.81
2023-02-21T23:39:33.908Z,8.83
2023-02-21T23:42:00.177Z,8.86
2023-02-21T23:44:26.425Z,8.92
2023-02-21T23:46:52.707Z,8.88
2023-02-21T23:49:18.979Z,8.93
2023-02-21T23:51:45.242Z,8.94
2023-02-21T23:54:11.535Z,8.96
2023-02-21T23:56:37.818Z,8.96
2023-02-21T23:59:04.067Z,8.94
